sensor_id;sensor_type;location;lat;lon;timestamp;P1;durP1;ratioP1;P2;durP2;ratioP2
41693;SDS011;27377;50.666;9.150;2022-09-01T00:00:38;4.30;;;1.40;;
41693;SDS011;27377;50.666;9.150;2022-09-01T00:03:06;3.38;;;1.30;;
41693;SDS011;27377;50.666;9.150;2022-09-01T00:05:36;3.28;;;1.40;;
41693;SDS011;27377;50.666;9.150;2022-09-01T00:08:02;2.70;;;1.30;;
41693;SDS011;27377;50.666;9.150;2022-09-01T00:10:29;4.03;;;1.30;;
41693;SDS011;27377;50.666;9.150;2022-09-01T00:12:55;4.22;;;1.50;;
41693;SDS011;27377;50.666;9.150;2022-09-01T00:15:20;3.45;;;1.48;;
41693;SDS011;27377;50.666;9.150;2022-09-01T00:17:46;3.22;;;1.38;;
41693;SDS011;27377;50.666;9.150;2022-09-01T00:20:12;2.77;;;1.40;;
41693;SDS011;27377;50.666;9.150;2022-09-01T00:22:38;2.67;;;1.30;;
41693;SDS011;27377;50.666;9.150;2022-09-01T00:25:03;3.60;;;1.42;;
41693;SDS011;27377;50.666;9.150;2022-09-01T00:27:30;5.25;;;1.40;;
41693;SDS011;27377;50.666;9.150;2022-09-01T00:29:56;2.40;;;1.10;;
41693;SDS011;27377;50.666;9.150;2022-09-01T00:32:22;3.60;;;1.20;;
41693;SDS011;27377;50.666;9.150;2022-09-01T00:34:49;1.90;;;1.13;;
41693;SDS011;27377;50.666;9.150;2022-09-01T00:37:14;3.03;;;1.17;;
41693;SDS011;27377;50.666;9.150;2022-09-01T00:39:40;3.83;;;1.40;;
41693;SDS011;27377;50.666;9.150;2022-09-01T00:42:05;2.30;;;1.30;;
41693;SDS011;27377;50.666;9.150;2022-09-01T00:44:31;4.20;;;1.30;;
41693;SDS011;27377;50.666;9.150;2022-09-01T00:47:00;3.20;;;1.50;;
41693;SDS011;27377;50.666;9.150;2022-09-01T00:52:05;2.50;;;1.27;;
41693;SDS011;27377;50.666;9.150;2022-09-01T00:54:46;2.67;;;1.20;;
41693;SDS011;27377;50.666;9.150;2022-09-01T00:57:18;1.83;;;1.00;;
41693;SDS011;27377;50.666;9.150;2022-09-01T00:59:45;3.15;;;1.02;;
41693;SDS011;27377;50.666;9.150;2022-09-01T01:02:41;2.08;;;0.90;;
41693;SDS011;27377;50.666;9.150;2022-09-01T01:05:09;2.15;;;1.17;;
41693;SDS011;27377;50.666;9.150;2022-09-01T01:07:36;2.90;;;1.20;;
41693;SDS011;27377;50.666;9.150;2022-09-01T01:10:06;2.30;;;1.00;;
41693;SDS011;27377;50.666;9.150;2022-09-01T01:12:35;3.28;;;1.20;;
41693;SDS011;27377;50.666;9.150;2022-09-01T01:15:04;3.28;;;1.10;;
41693;SDS011;27377;50.666;9.150;2022-09-01T01:17:33;2.40;;;1.10;;
41693;SDS011;27377;50.666;9.150;2022-09-01T01:19:59;2.85;;;1.25;;
41693;SDS011;27377;50.666;9.150;2022-09-01T01:28:42;4.77;;;1.33;;
41693;SDS011;27377;50.666;9.150;2022-09-01T01:30:53;1.60;;;0.90;;
41693;SDS011;27377;50.666;9.150;2022-09-01T01:33:24;2.20;;;1.08;;
41693;SDS011;27377;50.666;9.150;2022-09-01T01:35:53;2.33;;;1.20;;
41693;SDS011;27377;50.666;9.150;2022-09-01T01:38:21;2.03;;;1.20;;
41693;SDS011;27377;50.666;9.150;2022-09-01T01:40:48;2.70;;;1.20;;
41693;SDS011;27377;50.666;9.150;2022-09-01T01:43:15;2.30;;;1.20;;
41693;SDS011;27377;50.666;9.150;2022-09-01T01:45:44;2.25;;;1.30;;
41693;SDS011;27377;50.666;9.150;2022-09-01T01:48:12;4.60;;;1.40;;
41693;SDS011;27377;50.666;9.150;2022-09-01T01:50:39;2.53;;;1.08;;
41693;SDS011;27377;50.666;9.150;2022-09-01T01:53:12;2.63;;;1.10;;
41693;SDS011;27377;50.666;9.150;2022-09-01T01:55:41;1.92;;;1.20;;
41693;SDS011;27377;50.666;9.150;2022-09-01T01:58:07;3.10;;;1.50;;
41693;SDS011;27377;50.666;9.150;2022-09-01T02:00:36;3.55;;;1.45;;
41693;SDS011;27377;50.666;9.150;2022-09-01T02:03:03;3.00;;;1.45;;
41693;SDS011;27377;50.666;9.150;2022-09-01T02:05:31;3.77;;;1.50;;
41693;SDS011;27377;50.666;9.150;2022-09-01T02:08:02;2.92;;;1.42;;
41693;SDS011;27377;50.666;9.150;2022-09-01T02:10:31;3.13;;;1.40;;
41693;SDS011;27377;50.666;9.150;2022-09-01T02:12:59;2.50;;;1.30;;
41693;SDS011;27377;50.666;9.150;2022-09-01T02:15:31;2.30;;;1.00;;
41693;SDS011;27377;50.666;9.150;2022-09-01T02:18:03;1.77;;;0.93;;
41693;SDS011;27377;50.666;9.150;2022-09-01T02:20:29;2.50;;;1.00;;
41693;SDS011;27377;50.666;9.150;2022-09-01T02:22:56;1.67;;;1.00;;
41693;SDS011;27377;50.666;9.150;2022-09-01T02:25:34;4.25;;;1.23;;
41693;SDS011;27377;50.666;9.150;2022-09-01T02:28:08;2.83;;;1.30;;
41693;SDS011;27377;50.666;9.150;2022-09-01T02:30:39;3.90;;;1.30;;
41693;SDS011;27377;50.666;9.150;2022-09-01T02:33:06;2.15;;;1.23;;
41693;SDS011;27377;50.666;9.150;2022-09-01T02:35:33;3.33;;;1.40;;
41693;SDS011;27377;50.666;9.150;2022-09-01T02:38:02;2.03;;;1.08;;
41693;SDS011;27377;50.666;9.150;2022-09-01T02:40:29;2.63;;;1.15;;
41693;SDS011;27377;50.666;9.150;2022-09-01T02:42:56;1.88;;;1.10;;
41693;SDS011;27377;50.666;9.150;2022-09-01T02:45:23;2.90;;;1.30;;
41693;SDS011;27377;50.666;9.150;2022-09-01T02:47:50;3.30;;;1.40;;
41693;SDS011;27377;50.666;9.150;2022-09-01T02:50:18;2.55;;;1.55;;
41693;SDS011;27377;50.666;9.150;2022-09-01T02:52:46;4.50;;;1.80;;
41693;SDS011;27377;50.666;9.150;2022-09-01T02:55:16;2.67;;;1.47;;
41693;SDS011;27377;50.666;9.150;2022-09-01T02:57:47;2.65;;;1.42;;
41693;SDS011;27377;50.666;9.150;2022-09-01T03:00:14;2.20;;;1.10;;
41693;SDS011;27377;50.666;9.150;2022-09-01T03:02:55;2.38;;;1.00;;
41693;SDS011;27377;50.666;9.150;2022-09-01T03:05:23;1.60;;;1.00;;
41693;SDS011;27377;50.666;9.150;2022-09-01T03:07:58;2.20;;;1.25;;
41693;SDS011;27377;50.666;9.150;2022-09-01T03:10:35;3.30;;;1.20;;
41693;SDS011;27377;50.666;9.150;2022-09-01T03:13:06;2.40;;;1.17;;
41693;SDS011;27377;50.666;9.150;2022-09-01T03:15:36;2.92;;;1.50;;
41693;SDS011;27377;50.666;9.150;2022-09-01T03:18:03;3.55;;;1.50;;
41693;SDS011;27377;50.666;9.150;2022-09-01T03:20:32;2.55;;;1.23;;
41693;SDS011;27377;50.666;9.150;2022-09-01T03:23:03;2.40;;;1.50;;
41693;SDS011;27377;50.666;9.150;2022-09-01T03:25:32;3.47;;;1.52;;
41693;SDS011;27377;50.666;9.150;2022-09-01T03:27:59;4.40;;;1.45;;
41693;SDS011;27377;50.666;9.150;2022-09-01T03:30:27;3.53;;;1.38;;
41693;SDS011;27377;50.666;9.150;2022-09-01T03:32:55;5.07;;;1.50;;
41693;SDS011;27377;50.666;9.150;2022-09-01T03:35:21;2.35;;;1.30;;
41693;SDS011;27377;50.666;9.150;2022-09-01T03:37:47;2.15;;;1.25;;
41693;SDS011;27377;50.666;9.150;2022-09-01T03:40:12;2.95;;;1.40;;
41693;SDS011;27377;50.666;9.150;2022-09-01T03:42:40;3.75;;;1.30;;
41693;SDS011;27377;50.666;9.150;2022-09-01T03:45:07;4.65;;;1.40;;
41693;SDS011;27377;50.666;9.150;2022-09-01T03:47:37;2.80;;;1.13;;
41693;SDS011;27377;50.666;9.150;2022-09-01T03:50:04;2.90;;;1.20;;
41693;SDS011;27377;50.666;9.150;2022-09-01T03:52:31;3.67;;;1.58;;
41693;SDS011;27377;50.666;9.150;2022-09-01T03:54:57;2.90;;;1.50;;
41693;SDS011;27377;50.666;9.150;2022-09-01T03:57:23;3.58;;;1.50;;
41693;SDS011;27377;50.666;9.150;2022-09-01T03:59:50;3.53;;;1.40;;
41693;SDS011;27377;50.666;9.150;2022-09-01T04:02:18;2.90;;;1.50;;
41693;SDS011;27377;50.666;9.150;2022-09-01T04:04:44;4.33;;;1.50;;
41693;SDS011;27377;50.666;9.150;2022-09-01T04:07:10;3.33;;;1.50;;
41693;SDS011;27377;50.666;9.150;2022-09-01T04:09:35;2.80;;;1.40;;
41693;SDS011;27377;50.666;9.150;2022-09-01T04:12:02;2.10;;;1.30;;
41693;SDS011;27377;50.666;9.150;2022-09-01T04:14:33;3.60;;;1.40;;
41693;SDS011;27377;50.666;9.150;2022-09-01T04:16:59;2.57;;;1.40;;
41693;SDS011;27377;50.666;9.150;2022-09-01T04:19:43;3.63;;;1.50;;
41693;SDS011;27377;50.666;9.150;2022-09-01T04:22:08;3.43;;;1.50;;
41693;SDS011;27377;50.666;9.150;2022-09-01T04:24:38;1.70;;;1.10;;
41693;SDS011;27377;50.666;9.150;2022-09-01T04:27:10;3.25;;;1.20;;
41693;SDS011;27377;50.666;9.150;2022-09-01T04:29:37;2.70;;;1.40;;
41693;SDS011;27377;50.666;9.150;2022-09-01T04:32:05;3.70;;;1.30;;
41693;SDS011;27377;50.666;9.150;2022-09-01T04:34:35;4.95;;;1.70;;
41693;SDS011;27377;50.666;9.150;2022-09-01T04:37:14;2.30;;;1.40;;
41693;SDS011;27377;50.666;9.150;2022-09-01T04:39:47;2.85;;;1.45;;
41693;SDS011;27377;50.666;9.150;2022-09-01T04:42:16;3.45;;;1.55;;
41693;SDS011;27377;50.666;9.150;2022-09-01T04:44:44;5.88;;;1.58;;
41693;SDS011;27377;50.666;9.150;2022-09-01T04:47:11;6.07;;;1.55;;
41693;SDS011;27377;50.666;9.150;2022-09-01T04:49:40;4.07;;;1.60;;
41693;SDS011;27377;50.666;9.150;2022-09-01T04:52:08;3.70;;;1.42;;
41693;SDS011;27377;50.666;9.150;2022-09-01T04:54:34;3.95;;;1.60;;
41693;SDS011;27377;50.666;9.150;2022-09-01T04:57:02;3.97;;;1.50;;
41693;SDS011;27377;50.666;9.150;2022-09-01T04:59:30;2.95;;;1.63;;
41693;SDS011;27377;50.666;9.150;2022-09-01T05:01:57;3.53;;;1.60;;
41693;SDS011;27377;50.666;9.150;2022-09-01T05:04:26;3.10;;;1.50;;
41693;SDS011;27377;50.666;9.150;2022-09-01T05:06:58;4.43;;;1.63;;
41693;SDS011;27377;50.666;9.150;2022-09-01T05:09:25;4.78;;;1.70;;
41693;SDS011;27377;50.666;9.150;2022-09-01T05:11:55;3.05;;;1.60;;
41693;SDS011;27377;50.666;9.150;2022-09-01T05:14:22;3.17;;;1.60;;
41693;SDS011;27377;50.666;9.150;2022-09-01T05:16:50;2.87;;;1.70;;
41693;SDS011;27377;50.666;9.150;2022-09-01T05:19:23;4.00;;;1.77;;
41693;SDS011;27377;50.666;9.150;2022-09-01T05:21:52;3.08;;;1.60;;
41693;SDS011;27377;50.666;9.150;2022-09-01T05:24:22;3.05;;;1.67;;
41693;SDS011;27377;50.666;9.150;2022-09-01T05:26:54;6.20;;;2.00;;
41693;SDS011;27377;50.666;9.150;2022-09-01T05:29:20;3.88;;;1.85;;
41693;SDS011;27377;50.666;9.150;2022-09-01T05:31:47;5.60;;;2.23;;
41693;SDS011;27377;50.666;9.150;2022-09-01T05:34:13;7.07;;;2.07;;
41693;SDS011;27377;50.666;9.150;2022-09-01T05:36:44;7.20;;;2.00;;
41693;SDS011;27377;50.666;9.150;2022-09-01T05:39:10;5.40;;;2.00;;
41693;SDS011;27377;50.666;9.150;2022-09-01T05:41:37;7.55;;;2.10;;
41693;SDS011;27377;50.666;9.150;2022-09-01T05:44:04;4.28;;;2.20;;
41693;SDS011;27377;50.666;9.150;2022-09-01T05:46:32;4.55;;;2.45;;
41693;SDS011;27377;50.666;9.150;2022-09-01T05:49:00;7.95;;;2.95;;
41693;SDS011;27377;50.666;9.150;2022-09-01T05:51:30;5.33;;;2.97;;
41693;SDS011;27377;50.666;9.150;2022-09-01T05:54:01;5.53;;;3.15;;
41693;SDS011;27377;50.666;9.150;2022-09-01T05:56:29;5.30;;;2.93;;
41693;SDS011;27377;50.666;9.150;2022-09-01T05:58:59;6.30;;;2.80;;
41693;SDS011;27377;50.666;9.150;2022-09-01T06:01:26;6.60;;;2.75;;
41693;SDS011;27377;50.666;9.150;2022-09-01T06:03:57;6.07;;;2.78;;
41693;SDS011;27377;50.666;9.150;2022-09-01T06:06:25;5.78;;;2.60;;
41693;SDS011;27377;50.666;9.150;2022-09-01T06:08:53;3.90;;;2.50;;
41693;SDS011;27377;50.666;9.150;2022-09-01T06:11:23;5.05;;;2.78;;
41693;SDS011;27377;50.666;9.150;2022-09-01T06:13:50;5.53;;;2.70;;
41693;SDS011;27377;50.666;9.150;2022-09-01T06:16:19;4.57;;;2.40;;
41693;SDS011;27377;50.666;9.150;2022-09-01T06:18:47;4.03;;;2.55;;
41693;SDS011;27377;50.666;9.150;2022-09-01T06:21:16;4.38;;;2.55;;
41693;SDS011;27377;50.666;9.150;2022-09-01T06:23:43;4.30;;;2.50;;
41693;SDS011;27377;50.666;9.150;2022-09-01T06:26:20;5.00;;;2.50;;
41693;SDS011;27377;50.666;9.150;2022-09-01T06:29:04;3.65;;;2.08;;
41693;SDS011;27377;50.666;9.150;2022-09-01T06:31:39;5.23;;;2.20;;
41693;SDS011;27377;50.666;9.150;2022-09-01T06:34:07;4.10;;;1.90;;
41693;SDS011;27377;50.666;9.150;2022-09-01T06:36:34;3.60;;;2.08;;
41693;SDS011;27377;50.666;9.150;2022-09-01T06:39:04;3.65;;;1.80;;
41693;SDS011;27377;50.666;9.150;2022-09-01T06:41:31;3.55;;;1.67;;
41693;SDS011;27377;50.666;9.150;2022-09-01T06:43:57;4.03;;;1.70;;
41693;SDS011;27377;50.666;9.150;2022-09-01T06:46:24;3.87;;;1.70;;
41693;SDS011;27377;50.666;9.150;2022-09-01T06:48:53;4.40;;;1.70;;
41693;SDS011;27377;50.666;9.150;2022-09-01T06:51:23;3.87;;;1.70;;
41693;SDS011;27377;50.666;9.150;2022-09-01T06:53:52;3.80;;;1.52;;
41693;SDS011;27377;50.666;9.150;2022-09-01T06:56:21;4.78;;;1.50;;
41693;SDS011;27377;50.666;9.150;2022-09-01T06:58:50;5.70;;;1.67;;
41693;SDS011;27377;50.666;9.150;2022-09-01T07:01:17;2.60;;;1.30;;
41693;SDS011;27377;50.666;9.150;2022-09-01T07:03:46;2.73;;;1.33;;
41693;SDS011;27377;50.666;9.150;2022-09-01T07:06:15;4.53;;;1.48;;
41693;SDS011;27377;50.666;9.150;2022-09-01T07:08:42;3.35;;;1.42;;
41693;SDS011;27377;50.666;9.150;2022-09-01T07:11:17;2.33;;;1.30;;
41693;SDS011;27377;50.666;9.150;2022-09-01T07:13:48;3.80;;;1.10;;
41693;SDS011;27377;50.666;9.150;2022-09-01T07:16:18;3.78;;;1.30;;
41693;SDS011;27377;50.666;9.150;2022-09-01T07:18:46;3.38;;;1.30;;
41693;SDS011;27377;50.666;9.150;2022-09-01T07:21:16;2.80;;;1.30;;
41693;SDS011;27377;50.666;9.150;2022-09-01T07:23:43;2.75;;;1.13;;
41693;SDS011;27377;50.666;9.150;2022-09-01T07:26:10;3.67;;;1.30;;
41693;SDS011;27377;50.666;9.150;2022-09-01T07:28:43;4.88;;;1.40;;
41693;SDS011;27377;50.666;9.150;2022-09-01T07:31:20;2.40;;;1.40;;
41693;SDS011;27377;50.666;9.150;2022-09-01T07:33:51;2.90;;;1.50;;
41693;SDS011;27377;50.666;9.150;2022-09-01T07:36:18;3.83;;;1.40;;
41693;SDS011;27377;50.666;9.150;2022-09-01T07:38:45;2.72;;;1.20;;
41693;SDS011;27377;50.666;9.150;2022-09-01T07:41:18;3.55;;;1.38;;
41693;SDS011;27377;50.666;9.150;2022-09-01T07:43:45;4.50;;;1.67;;
41693;SDS011;27377;50.666;9.150;2022-09-01T07:46:13;3.87;;;1.43;;
41693;SDS011;27377;50.666;9.150;2022-09-01T07:48:39;3.63;;;1.50;;
41693;SDS011;27377;50.666;9.150;2022-09-01T07:51:04;3.93;;;1.57;;
41693;SDS011;27377;50.666;9.150;2022-09-01T07:53:32;4.90;;;1.58;;
41693;SDS011;27377;50.666;9.150;2022-09-01T07:56:03;3.65;;;1.70;;
41693;SDS011;27377;50.666;9.150;2022-09-01T07:58:32;4.28;;;1.50;;
41693;SDS011;27377;50.666;9.150;2022-09-01T08:00:59;3.50;;;1.50;;
41693;SDS011;27377;50.666;9.150;2022-09-01T08:03:27;4.50;;;1.75;;
41693;SDS011;27377;50.666;9.150;2022-09-01T08:05:54;5.53;;;1.98;;
41693;SDS011;27377;50.666;9.150;2022-09-01T08:08:24;3.30;;;1.45;;
41693;SDS011;27377;50.666;9.150;2022-09-01T08:10:50;4.20;;;1.52;;
41693;SDS011;27377;50.666;9.150;2022-09-01T08:13:16;3.80;;;1.45;;
41693;SDS011;27377;50.666;9.150;2022-09-01T08:15:42;3.40;;;1.30;;
41693;SDS011;27377;50.666;9.150;2022-09-01T08:18:08;3.40;;;1.40;;
41693;SDS011;27377;50.666;9.150;2022-09-01T08:20:36;3.67;;;1.50;;
41693;SDS011;27377;50.666;9.150;2022-09-01T08:23:04;3.73;;;1.40;;
41693;SDS011;27377;50.666;9.150;2022-09-01T08:25:30;2.85;;;1.33;;
41693;SDS011;27377;50.666;9.150;2022-09-01T08:27:57;4.45;;;1.33;;
41693;SDS011;27377;50.666;9.150;2022-09-01T08:30:23;3.63;;;1.47;;
41693;SDS011;27377;50.666;9.150;2022-09-01T08:32:48;4.30;;;1.20;;
41693;SDS011;27377;50.666;9.150;2022-09-01T08:35:14;5.72;;;1.40;;
41693;SDS011;27377;50.666;9.150;2022-09-01T08:37:40;3.15;;;1.33;;
41693;SDS011;27377;50.666;9.150;2022-09-01T08:40:07;5.70;;;1.63;;
41693;SDS011;27377;50.666;9.150;2022-09-01T08:45:27;3.30;;;1.42;;
41693;SDS011;27377;50.666;9.150;2022-09-01T08:47:59;4.57;;;1.50;;
41693;SDS011;27377;50.666;9.150;2022-09-01T08:50:33;5.33;;;1.60;;
41693;SDS011;27377;50.666;9.150;2022-09-01T08:53:06;5.68;;;1.50;;
41693;SDS011;27377;50.666;9.150;2022-09-01T08:55:42;3.17;;;1.27;;
41693;SDS011;27377;50.666;9.150;2022-09-01T08:58:12;3.20;;;1.40;;
41693;SDS011;27377;50.666;9.150;2022-09-01T09:00:43;5.50;;;1.50;;
41693;SDS011;27377;50.666;9.150;2022-09-01T09:03:26;2.58;;;1.27;;
41693;SDS011;27377;50.666;9.150;2022-09-01T09:06:09;4.30;;;1.30;;
41693;SDS011;27377;50.666;9.150;2022-09-01T09:08:52;3.13;;;1.30;;
41693;SDS011;27377;50.666;9.150;2022-09-01T09:16:42;3.72;;;1.35;;
41693;SDS011;27377;50.666;9.150;2022-09-01T09:22:01;2.72;;;1.20;;
41693;SDS011;27377;50.666;9.150;2022-09-01T09:24:31;3.00;;;1.27;;
41693;SDS011;27377;50.666;9.150;2022-09-01T09:27:18;2.50;;;1.20;;
41693;SDS011;27377;50.666;9.150;2022-09-01T09:29:49;3.95;;;1.40;;
41693;SDS011;27377;50.666;9.150;2022-09-01T09:32:17;3.15;;;1.20;;
41693;SDS011;27377;50.666;9.150;2022-09-01T09:34:43;3.30;;;1.30;;
41693;SDS011;27377;50.666;9.150;2022-09-01T09:37:19;4.55;;;1.52;;
41693;SDS011;27377;50.666;9.150;2022-09-01T09:45:30;2.58;;;1.10;;
41693;SDS011;27377;50.666;9.150;2022-09-01T09:47:58;3.72;;;1.42;;
41693;SDS011;27377;50.666;9.150;2022-09-01T09:56:00;3.50;;;1.35;;
41693;SDS011;27377;50.666;9.150;2022-09-01T09:58:34;5.43;;;1.25;;
41693;SDS011;27377;50.666;9.150;2022-09-01T10:01:08;2.40;;;1.10;;
41693;SDS011;27377;50.666;9.150;2022-09-01T10:06:09;3.55;;;1.30;;
41693;SDS011;27377;50.666;9.150;2022-09-01T10:08:53;2.90;;;1.20;;
41693;SDS011;27377;50.666;9.150;2022-09-01T10:11:24;2.97;;;1.33;;
41693;SDS011;27377;50.666;9.150;2022-09-01T10:13:56;4.05;;;1.40;;
41693;SDS011;27377;50.666;9.150;2022-09-01T10:16:26;2.07;;;1.30;;
41693;SDS011;27377;50.666;9.150;2022-09-01T10:18:54;3.05;;;1.30;;
41693;SDS011;27377;50.666;9.150;2022-09-01T10:21:30;3.50;;;1.20;;
41693;SDS011;27377;50.666;9.150;2022-09-01T10:23:59;3.70;;;1.40;;
41693;SDS011;27377;50.666;9.150;2022-09-01T10:26:37;4.22;;;1.40;;
41693;SDS011;27377;50.666;9.150;2022-09-01T10:31:30;3.15;;;1.30;;
41693;SDS011;27377;50.666;9.150;2022-09-01T10:33:56;3.25;;;1.10;;
41693;SDS011;27377;50.666;9.150;2022-09-01T10:36:24;4.40;;;1.40;;
41693;SDS011;27377;50.666;9.150;2022-09-01T10:38:50;4.20;;;1.30;;
41693;SDS011;27377;50.666;9.150;2022-09-01T10:44:07;3.88;;;1.30;;
41693;SDS011;27377;50.666;9.150;2022-09-01T10:46:54;3.17;;;1.23;;
41693;SDS011;27377;50.666;9.150;2022-09-01T10:49:55;3.97;;;1.30;;
41693;SDS011;27377;50.666;9.150;2022-09-01T10:52:09;3.88;;;1.50;;
41693;SDS011;27377;50.666;9.150;2022-09-01T10:57:06;5.63;;;1.40;;
41693;SDS011;27377;50.666;9.150;2022-09-01T10:59:35;2.88;;;1.27;;
41693;SDS011;27377;50.666;9.150;2022-09-01T11:02:08;3.58;;;1.23;;
41693;SDS011;27377;50.666;9.150;2022-09-01T11:12:50;3.30;;;1.20;;
41693;SDS011;27377;50.666;9.150;2022-09-01T11:15:43;2.33;;;1.23;;
41693;SDS011;27377;50.666;9.150;2022-09-01T11:18:28;3.30;;;1.20;;
41693;SDS011;27377;50.666;9.150;2022-09-01T11:21:12;3.72;;;1.50;;
41693;SDS011;27377;50.666;9.150;2022-09-01T11:23:40;3.35;;;1.30;;
41693;SDS011;27377;50.666;9.150;2022-09-01T11:28:59;3.67;;;1.40;;
41693;SDS011;27377;50.666;9.150;2022-09-01T11:31:28;3.60;;;1.40;;
41693;SDS011;27377;50.666;9.150;2022-09-01T11:34:09;3.38;;;1.30;;
41693;SDS011;27377;50.666;9.150;2022-09-01T11:44:26;3.47;;;1.30;;
41693;SDS011;27377;50.666;9.150;2022-09-01T11:47:09;4.50;;;1.33;;
41693;SDS011;27377;50.666;9.150;2022-09-01T11:49:46;3.20;;;1.30;;
41693;SDS011;27377;50.666;9.150;2022-09-01T11:52:16;4.00;;;1.50;;
41693;SDS011;27377;50.666;9.150;2022-09-01T11:54:44;5.00;;;1.40;;
41693;SDS011;27377;50.666;9.150;2022-09-01T11:57:32;3.00;;;1.15;;
41693;SDS011;27377;50.666;9.150;2022-09-01T12:00:11;3.15;;;1.40;;
41693;SDS011;27377;50.666;9.150;2022-09-01T12:02:48;2.83;;;1.13;;
41693;SDS011;27377;50.666;9.150;2022-09-01T12:05:26;3.10;;;1.30;;
41693;SDS011;27377;50.666;9.150;2022-09-01T12:07:57;2.10;;;1.20;;
41693;SDS011;27377;50.666;9.150;2022-09-01T12:13:10;2.90;;;1.30;;
41693;SDS011;27377;50.666;9.150;2022-09-01T12:15:53;2.50;;;1.38;;
41693;SDS011;27377;50.666;9.150;2022-09-01T12:18:23;3.30;;;1.20;;
41693;SDS011;27377;50.666;9.150;2022-09-01T12:20:52;3.88;;;1.30;;
41693;SDS011;27377;50.666;9.150;2022-09-01T12:25:52;4.75;;;1.40;;
41693;SDS011;27377;50.666;9.150;2022-09-01T12:28:20;2.40;;;1.13;;
41693;SDS011;27377;50.666;9.150;2022-09-01T12:30:47;3.72;;;1.35;;
41693;SDS011;27377;50.666;9.150;2022-09-01T12:33:14;3.90;;;1.38;;
41693;SDS011;27377;50.666;9.150;2022-09-01T12:35:42;2.60;;;1.30;;
41693;SDS011;27377;50.666;9.150;2022-09-01T12:40:44;3.35;;;1.27;;
41693;SDS011;27377;50.666;9.150;2022-09-01T12:43:11;3.50;;;1.10;;
41693;SDS011;27377;50.666;9.150;2022-09-01T12:45:52;3.83;;;1.67;;
41693;SDS011;27377;50.666;9.150;2022-09-01T12:48:25;2.97;;;1.20;;
41693;SDS011;27377;50.666;9.150;2022-09-01T12:50:54;2.78;;;1.10;;
41693;SDS011;27377;50.666;9.150;2022-09-01T12:53:22;3.42;;;1.30;;
41693;SDS011;27377;50.666;9.150;2022-09-01T12:55:54;3.57;;;1.33;;
41693;SDS011;27377;50.666;9.150;2022-09-01T12:58:40;4.50;;;1.10;;
41693;SDS011;27377;50.666;9.150;2022-09-01T13:01:15;2.80;;;1.20;;
41693;SDS011;27377;50.666;9.150;2022-09-01T13:04:12;2.20;;;1.20;;
41693;SDS011;27377;50.666;9.150;2022-09-01T13:06:51;2.20;;;1.10;;
41693;SDS011;27377;50.666;9.150;2022-09-01T13:09:17;2.20;;;1.00;;
41693;SDS011;27377;50.666;9.150;2022-09-01T13:11:43;4.00;;;1.33;;
41693;SDS011;27377;50.666;9.150;2022-09-01T13:14:14;3.28;;;1.30;;
41693;SDS011;27377;50.666;9.150;2022-09-01T13:16:40;2.88;;;1.23;;
41693;SDS011;27377;50.666;9.150;2022-09-01T13:19:06;3.40;;;1.10;;
41693;SDS011;27377;50.666;9.150;2022-09-01T13:21:33;3.45;;;1.40;;
41693;SDS011;27377;50.666;9.150;2022-09-01T13:24:00;3.47;;;1.20;;
41693;SDS011;27377;50.666;9.150;2022-09-01T13:26:29;2.78;;;1.30;;
41693;SDS011;27377;50.666;9.150;2022-09-01T13:28:59;2.00;;;1.10;;
41693;SDS011;27377;50.666;9.150;2022-09-01T13:31:25;3.90;;;1.50;;
41693;SDS011;27377;50.666;9.150;2022-09-01T13:33:53;2.57;;;1.27;;
41693;SDS011;27377;50.666;9.150;2022-09-01T13:36:19;4.13;;;1.10;;
41693;SDS011;27377;50.666;9.150;2022-09-01T13:38:44;4.90;;;1.23;;
41693;SDS011;27377;50.666;9.150;2022-09-01T13:41:10;2.35;;;1.20;;
41693;SDS011;27377;50.666;9.150;2022-09-01T13:43:38;2.58;;;1.08;;
41693;SDS011;27377;50.666;9.150;2022-09-01T13:46:04;2.47;;;1.40;;
41693;SDS011;27377;50.666;9.150;2022-09-01T13:48:29;2.75;;;1.17;;
41693;SDS011;27377;50.666;9.150;2022-09-01T13:50:55;4.97;;;1.15;;
41693;SDS011;27377;50.666;9.150;2022-09-01T13:53:22;2.13;;;1.20;;
41693;SDS011;27377;50.666;9.150;2022-09-01T13:55:47;3.97;;;1.33;;
41693;SDS011;27377;50.666;9.150;2022-09-01T13:58:16;2.53;;;1.27;;
41693;SDS011;27377;50.666;9.150;2022-09-01T14:00:43;4.30;;;1.30;;
41693;SDS011;27377;50.666;9.150;2022-09-01T14:03:11;3.30;;;1.10;;
41693;SDS011;27377;50.666;9.150;2022-09-01T14:05:42;4.07;;;1.20;;
41693;SDS011;27377;50.666;9.150;2022-09-01T14:08:10;2.80;;;1.13;;
41693;SDS011;27377;50.666;9.150;2022-09-01T14:10:39;2.50;;;1.20;;
41693;SDS011;27377;50.666;9.150;2022-09-01T14:13:06;2.90;;;1.20;;
41693;SDS011;27377;50.666;9.150;2022-09-01T14:15:33;3.17;;;1.20;;
41693;SDS011;27377;50.666;9.150;2022-09-01T14:17:59;2.57;;;1.10;;
41693;SDS011;27377;50.666;9.150;2022-09-01T14:20:27;2.85;;;1.00;;
41693;SDS011;27377;50.666;9.150;2022-09-01T14:22:55;4.25;;;1.10;;
41693;SDS011;27377;50.666;9.150;2022-09-01T14:25:21;3.03;;;1.10;;
41693;SDS011;27377;50.666;9.150;2022-09-01T14:27:47;2.88;;;1.25;;
41693;SDS011;27377;50.666;9.150;2022-09-01T14:30:24;1.88;;;1.00;;
41693;SDS011;27377;50.666;9.150;2022-09-01T14:32:50;2.65;;;1.00;;
41693;SDS011;27377;50.666;9.150;2022-09-01T14:35:18;2.67;;;1.17;;
41693;SDS011;27377;50.666;9.150;2022-09-01T14:37:47;2.90;;;1.20;;
41693;SDS011;27377;50.666;9.150;2022-09-01T14:40:14;3.65;;;1.10;;
41693;SDS011;27377;50.666;9.150;2022-09-01T14:42:41;3.97;;;1.20;;
41693;SDS011;27377;50.666;9.150;2022-09-01T14:45:13;3.33;;;1.15;;
41693;SDS011;27377;50.666;9.150;2022-09-01T14:47:42;2.90;;;1.10;;
41693;SDS011;27377;50.666;9.150;2022-09-01T14:50:09;3.83;;;1.10;;
41693;SDS011;27377;50.666;9.150;2022-09-01T14:52:35;2.20;;;1.00;;
41693;SDS011;27377;50.666;9.150;2022-09-01T14:55:01;2.85;;;1.30;;
41693;SDS011;27377;50.666;9.150;2022-09-01T14:57:27;2.60;;;1.02;;
41693;SDS011;27377;50.666;9.150;2022-09-01T14:59:53;2.23;;;1.00;;
41693;SDS011;27377;50.666;9.150;2022-09-01T15:02:18;2.27;;;1.00;;
41693;SDS011;27377;50.666;9.150;2022-09-01T15:04:44;3.38;;;1.20;;
41693;SDS011;27377;50.666;9.150;2022-09-01T15:07:09;4.30;;;1.08;;
41693;SDS011;27377;50.666;9.150;2022-09-01T15:09:37;3.33;;;1.25;;
41693;SDS011;27377;50.666;9.150;2022-09-01T15:12:02;2.73;;;1.00;;
41693;SDS011;27377;50.666;9.150;2022-09-01T15:14:28;2.70;;;1.03;;
41693;SDS011;27377;50.666;9.150;2022-09-01T15:16:56;2.87;;;1.07;;
41693;SDS011;27377;50.666;9.150;2022-09-01T15:19:22;3.37;;;1.10;;
41693;SDS011;27377;50.666;9.150;2022-09-01T15:21:48;3.75;;;0.90;;
41693;SDS011;27377;50.666;9.150;2022-09-01T15:24:14;2.28;;;1.02;;
41693;SDS011;27377;50.666;9.150;2022-09-01T15:26:39;2.90;;;1.00;;
41693;SDS011;27377;50.666;9.150;2022-09-01T15:29:05;2.20;;;0.90;;
41693;SDS011;27377;50.666;9.150;2022-09-01T15:31:33;3.10;;;1.00;;
41693;SDS011;27377;50.666;9.150;2022-09-01T15:34:00;2.23;;;1.10;;
41693;SDS011;27377;50.666;9.150;2022-09-01T15:36:28;2.77;;;1.10;;
41693;SDS011;27377;50.666;9.150;2022-09-01T15:38:55;5.38;;;1.05;;
41693;SDS011;27377;50.666;9.150;2022-09-01T15:41:23;2.92;;;0.95;;
41693;SDS011;27377;50.666;9.150;2022-09-01T15:43:51;2.63;;;0.90;;
41693;SDS011;27377;50.666;9.150;2022-09-01T15:46:17;3.42;;;1.10;;
41693;SDS011;27377;50.666;9.150;2022-09-01T15:48:43;2.33;;;0.95;;
41693;SDS011;27377;50.666;9.150;2022-09-01T15:53:47;2.90;;;1.10;;
41693;SDS011;27377;50.666;9.150;2022-09-01T15:56:17;3.28;;;0.90;;
41693;SDS011;27377;50.666;9.150;2022-09-01T15:58:43;2.17;;;0.80;;
41693;SDS011;27377;50.666;9.150;2022-09-01T16:01:09;1.98;;;0.93;;
41693;SDS011;27377;50.666;9.150;2022-09-01T16:03:35;3.67;;;1.00;;
41693;SDS011;27377;50.666;9.150;2022-09-01T16:06:00;3.70;;;1.00;;
41693;SDS011;27377;50.666;9.150;2022-09-01T16:08:26;2.07;;;0.90;;
41693;SDS011;27377;50.666;9.150;2022-09-01T16:10:51;2.57;;;1.00;;